Time;durP1;ratioP1;P1;durP2;ratioP2;P2;SDS_P1;SDS_P2;PMS_P1;PMS_P2;Temp;Humidity;BMP_temperature;BMP_pressure;BME280_temperature;BME280_humidity;BME280_pressure;Samples;Min_cycle;Max_cycle;Signal;HPM_P1;HPM_P2
2024/01/02 05:30:37;;;;;;;0.10;0.10;;;13.10;93.30;;;;;;5761086;23;20147;-80
2024/01/02 05:33:03;;;;;;;0.10;0.10;;;13.10;93.30;;;;;;4921218;29;20047;-80
2024/01/02 05:35:29;;;;;;;0.10;0.10;;;13.10;93.30;;;;;;4923116;29;20028;-80
2024/01/02 05:37:55;;;;;;;0.10;0.10;;;13.20;93.30;;;;;;4930298;29;20029;-80
2024/01/02 05:40:20;;;;;;;0.00;0.00;;;13.10;93.20;;;;;;4910425;29;20079;-80
2024/01/02 05:42:46;;;;;;;0.10;0.10;;;13.20;93.20;;;;;;4939464;29;20052;-80
2024/01/02 05:45:11;;;;;;;0.10;0.10;;;13.20;93.10;;;;;;4939441;29;20038;-82
2024/01/02 05:47:37;;;;;;;0.00;0.00;;;13.20;93.20;;;;;;4908486;29;20025;-79
2024/01/02 05:50:03;;;;;;;0.10;0.10;;;13.20;93.20;;;;;;4928825;29;20079;-81
2024/01/02 05:52:29;;;;;;;0.00;0.00;;;13.20;93.10;;;;;;4939490;29;20022;-82
2024/01/02 05:54:54;;;;;;;0.05;0.05;;;13.20;93.10;;;;;;4906704;29;20428;-81
2024/01/02 05:57:20;;;;;;;0.10;0.10;;;13.20;93.10;;;;;;4901697;29;20032;-80
2024/01/02 05:59:45;;;;;;;0.10;0.10;;;13.20;93.10;;;;;;4904205;29;20039;-79
2024/01/02 06:02:11;;;;;;;0.10;0.10;;;13.20;93.10;;;;;;4893422;29;20124;-77
2024/01/02 06:04:37;;;;;;;0.10;0.10;;;13.30;93.00;;;;;;4920071;29;20039;-77
2024/01/02 06:07:02;;;;;;;0.00;0.00;;;13.30;92.90;;;;;;4933245;29;20031;-77
2024/01/02 06:09:28;;;;;;;0.10;0.10;;;13.30;92.90;;;;;;4927776;29;20033;-77
2024/01/02 06:11:54;;;;;;;0.10;0.10;;;13.30;92.90;;;;;;4917164;29;20024;-80
2024/01/02 06:14:19;;;;;;;0.10;0.10;;;13.30;92.80;;;;;;4916868;29;20032;-80
2024/01/02 06:16:45;;;;;;;0.10;0.10;;;13.30;92.80;;;;;;4907189;29;20028;-76
2024/01/02 06:19:11;;;;;;;0.10;0.10;;;13.30;92.70;;;;;;4920485;29;20028;-77
2024/01/02 06:21:37;;;;;;;0.10;0.10;;;13.30;92.80;;;;;;4905219;29;20056;-77
2024/01/02 06:24:03;;;;;;;0.00;0.00;;;13.30;92.80;;;;;;4905141;29;20032;-90
2024/01/02 06:26:29;;;;;;;0.10;0.10;;;13.30;92.80;;;;;;4905398;29;20016;-79
2024/01/02 06:28:54;;;;;;;0.10;0.10;;;13.30;92.80;;;;;;4915226;29;20096;-80
2024/01/02 06:31:21;;;;;;;0.10;0.10;;;13.30;92.70;;;;;;4923710;29;20044;-80
2024/01/02 06:33:47;;;;;;;0.10;0.10;;;13.30;92.90;;;;;;4914217;29;20032;-80
2024/01/02 06:36:13;;;;;;;0.10;0.10;;;13.30;93.10;;;;;;4903965;29;20081;-80
2024/01/02 06:38:38;;;;;;;0.10;0.10;;;13.30;93.10;;;;;;4892489;29;20029;-80
2024/01/02 06:41:04;;;;;;;0.10;0.10;;;13.30;93.20;;;;;;4908577;29;20068;-81
2024/01/02 06:43:30;;;;;;;0.10;0.10;;;13.30;93.20;;;;;;4888241;29;20033;-80
2024/01/02 06:45:57;;;;;;;0.10;0.10;;;13.30;93.20;;;;;;4905131;29;20052;-80
2024/01/02 06:48:22;;;;;;;0.10;0.10;;;13.30;93.20;;;;;;4904941;29;20456;-80
2024/01/02 06:50:48;;;;;;;0.05;0.05;;;13.30;93.00;;;;;;4916260;29;20035;-83
2024/01/02 06:53:14;;;;;;;0.10;0.10;;;13.30;93.10;;;;;;4921811;29;20032;-78
2024/01/02 06:55:40;;;;;;;0.10;0.10;;;13.30;93.20;;;;;;4917976;29;20495;-79
2024/01/02 06:58:05;;;;;;;0.10;0.10;;;13.30;93.10;;;;;;4942233;29;20079;-81
2024/01/02 07:00:32;;;;;;;0.03;0.03;;;13.40;92.90;;;;;;4933138;29;20039;-80
2024/01/02 07:02:59;;;;;;;0.00;0.00;;;13.40;92.80;;;;;;4921535;29;20080;-80
2024/01/02 07:05:24;;;;;;;0.03;0.03;;;13.30;92.60;;;;;;4922573;29;20044;-79
2024/01/02 07:07:50;;;;;;;0.00;0.00;;;13.40;92.60;;;;;;4923388;29;20076;-79
2024/01/02 07:10:16;;;;;;;0.00;0.00;;;13.40;92.60;;;;;;4916511;29;20455;-79
2024/01/02 07:12:41;;;;;;;0.10;0.10;;;13.30;92.50;;;;;;4922546;29;20074;-80
2024/01/02 07:15:07;;;;;;;0.00;0.00;;;13.40;92.60;;;;;;4922915;29;20028;-79
2024/01/02 07:17:33;;;;;;;0.10;0.10;;;13.40;92.60;;;;;;4907699;29;20033;-80
2024/01/02 07:19:59;;;;;;;0.10;0.10;;;13.40;92.40;;;;;;4887187;29;20032;-79
2024/01/02 07:22:26;;;;;;;0.00;0.00;;;13.40;92.40;;;;;;4901868;29;20100;-80
2024/01/02 07:24:52;;;;;;;0.10;0.10;;;13.30;92.40;;;;;;4900887;29;20025;-79
2024/01/02 07:27:18;;;;;;;0.10;0.10;;;13.40;92.50;;;;;;4901632;29;20031;-79
2024/01/02 07:29:43;;;;;;;0.10;0.10;;;13.30;92.30;;;;;;4902531;29;20036;-79
2024/01/02 07:32:10;;;;;;;0.10;0.10;;;13.30;92.40;;;;;;4903134;29;20040;-80
2024/01/02 07:34:36;;;;;;;0.00;0.00;;;13.40;92.40;;;;;;4906113;29;20096;-80
2024/01/02 07:37:01;;;;;;;0.10;0.10;;;13.30;92.30;;;;;;4903439;29;20035;-79
2024/01/02 07:39:27;;;;;;;0.10;0.10;;;13.40;92.30;;;;;;4903122;29;20132;-79
2024/01/02 07:41:53;;;;;;;0.10;0.10;;;13.40;92.30;;;;;;4923940;29;20024;-79
2024/01/02 07:44:18;;;;;;;0.10;0.10;;;13.30;92.20;;;;;;4915104;29;20032;-79
2024/01/02 07:46:44;;;;;;;0.03;0.03;;;13.40;92.20;;;;;;4903610;29;20428;-80
2024/01/02 07:49:10;;;;;;;0.10;0.10;;;13.40;92.10;;;;;;4903443;29;20033;-79
2024/01/02 07:51:36;;;;;;;0.10;0.10;;;13.40;92.20;;;;;;4903209;29;20131;-79
2024/01/02 07:54:02;;;;;;;0.10;0.10;;;13.40;92.20;;;;;;4903333;29;20061;-79
2024/01/02 07:56:28;;;;;;;0.00;0.00;;;13.40;92.20;;;;;;4903260;29;20081;-79
2024/01/02 07:58:55;;;;;;;0.10;0.10;;;13.40;92.20;;;;;;4886019;29;20699;-79
2024/01/02 08:01:20;;;;;;;0.00;0.00;;;13.40;92.20;;;;;;4918605;29;20028;-80
2024/01/02 08:03:46;;;;;;;0.00;0.00;;;13.40;92.20;;;;;;4921765;29;20083;-79
2024/01/02 08:06:12;;;;;;;0.10;0.10;;;13.50;92.30;;;;;;4902222;29;20143;-79
2024/01/02 08:08:37;;;;;;;0.05;0.05;;;13.50;92.20;;;;;;4915639;29;20032;-80
2024/01/02 08:11:04;;;;;;;0.10;0.10;;;13.50;92.40;;;;;;4930064;29;20028;-80
2024/01/02 08:13:30;;;;;;;0.10;0.10;;;13.50;92.40;;;;;;4921748;29;20087;-82
2024/01/02 08:15:56;;;;;;;0.10;0.10;;;13.40;92.40;;;;;;4905089;29;20039;-80
2024/01/02 08:18:21;;;;;;;0.10;0.10;;;13.50;92.50;;;;;;4886001;29;20552;-90
2024/01/02 08:20:47;;;;;;;0.00;0.00;;;13.40;92.50;;;;;;4908207;29;20107;-84
2024/01/02 08:23:13;;;;;;;0.10;0.10;;;13.50;92.50;;;;;;4913530;29;20088;-88
2024/01/02 08:25:39;;;;;;;0.08;0.08;;;13.50;92.60;;;;;;4904609;29;20032;-90
2024/01/02 08:28:08;;;;;;;0.10;0.10;;;13.40;92.70;;;;;;4904188;29;20122;-88
2024/01/02 08:30:34;;;;;;;0.10;0.10;;;13.40;92.60;;;;;;4908084;29;20169;-84
2024/01/02 08:33:00;;;;;;;0.10;0.10;;;13.40;92.70;;;;;;4923144;29;20028;-81
2024/01/02 08:35:26;;;;;;;0.10;0.10;;;13.40;92.60;;;;;;4916232;29;20151;-82
2024/01/02 08:37:51;;;;;;;0.05;0.05;;;13.40;92.50;;;;;;4926572;29;20106;-82
2024/01/02 08:40:17;;;;;;;0.10;0.10;;;13.40;92.40;;;;;;4928757;29;20470;-82
2024/01/02 08:42:43;;;;;;;0.00;0.00;;;13.40;92.40;;;;;;4916442;29;20084;-80
2024/01/02 08:45:12;;;;;;;0.10;0.10;;;13.50;92.40;;;;;;4922007;29;20139;-78
2024/01/02 08:47:38;;;;;;;0.05;0.05;;;13.40;92.30;;;;;;4908960;29;20031;-78
2024/01/02 08:50:06;;;;;;;0.10;0.10;;;13.50;92.30;;;;;;4899686;29;20036;-78
2024/01/02 08:52:32;;;;;;;0.00;0.00;;;13.50;92.30;;;;;;4908562;29;20571;-78
2024/01/02 08:54:59;;;;;;;0.10;0.10;;;13.50;92.30;;;;;;4909435;29;20060;-79
2024/01/02 08:57:25;;;;;;;0.10;0.10;;;13.50;92.30;;;;;;4906604;29;20518;-78
2024/01/02 08:59:51;;;;;;;0.10;0.10;;;13.50;92.40;;;;;;4929215;29;20098;-78
2024/01/02 09:02:16;;;;;;;0.00;0.00;;;13.50;92.40;;;;;;4910138;29;20090;-84
2024/01/02 09:04:43;;;;;;;0.10;0.10;;;13.50;92.40;;;;;;4913937;29;20028;-82
2024/01/02 09:07:09;;;;;;;0.10;0.10;;;13.50;92.40;;;;;;4922848;29;20024;-81
2024/01/02 09:09:35;;;;;;;0.10;0.10;;;13.50;92.50;;;;;;4910453;29;20035;-81
2024/01/02 09:12:02;;;;;;;0.10;0.10;;;13.50;92.70;;;;;;4918206;29;20032;-82
2024/01/02 09:14:28;;;;;;;0.10;0.10;;;13.50;92.60;;;;;;4928999;29;20063;-81
2024/01/02 09:16:54;;;;;;;0.10;0.10;;;13.50;92.70;;;;;;4922861;29;20083;-80
2024/01/02 09:19:20;;;;;;;0.10;0.10;;;13.50;92.70;;;;;;4917442;29;20045;-80
2024/01/02 09:21:46;;;;;;;0.05;0.05;;;13.50;92.60;;;;;;4926039;29;20161;-80
2024/01/02 09:24:17;;;;;;;0.10;0.10;;;13.50;92.50;;;;;;4921107;29;20039;-82
2024/01/02 09:26:46;;;;;;;0.10;0.10;;;13.50;92.70;;;;;;4917647;29;20032;-79
2024/01/02 09:29:12;;;;;;;0.00;0.00;;;13.50;92.60;;;;;;4913058;29;20036;-81
2024/01/02 09:31:40;;;;;;;0.00;0.00;;;13.50;92.60;;;;;;4912482;29;20087;-82
2024/01/02 09:34:06;;;;;;;0.00;0.00;;;13.50;92.50;;;;;;4928393;29;20039;-81
2024/01/02 09:36:31;;;;;;;0.10;0.10;;;13.50;92.50;;;;;;4923527;29;20028;-82
2024/01/02 09:38:57;;;;;;;0.05;0.05;;;13.50;92.50;;;;;;4923901;29;20033;-80
2024/01/02 09:41:54;;;;;;;0.10;0.10;;;13.50;92.10;;;;;;4933266;29;20027;-81
2024/01/02 09:44:44;;;;;;;0.10;0.10;;;13.50;92.40;;;;;;4917997;29;20028;-81
2024/01/02 09:47:22;;;;;;;0.10;0.10;;;13.50;92.50;;;;;;4917933;29;20027;-83
2024/01/02 09:50:00;;;;;;;0.03;0.03;;;13.50;92.40;;;;;;4921413;29;20069;-83
2024/01/02 09:52:47;;;;;;;0.05;0.05;;;13.50;92.50;;;;;;4907729;29;20036;-83
2024/01/02 09:55:41;;;;;;;0.10;0.10;;;13.50;92.50;;;;;;4912789;29;20499;-86
2024/01/02 09:58:12;;;;;;;0.10;0.10;;;13.50;92.50;;;;;;4919243;29;20463;-86
2024/01/02 10:01:03;;;;;;;0.10;0.10;;;13.50;92.40;;;;;;4910979;29;20487;-85
2024/01/02 10:03:50;;;;;;;0.10;0.10;;;13.50;92.50;;;;;;4925137;29;20057;-85
2024/01/02 10:06:41;;;;;;;0.00;0.00;;;13.50;92.50;;;;;;4906147;29;20020;-84
2024/01/02 10:09:15;;;;;;;0.10;0.10;;;13.50;92.70;;;;;;4916521;29;20111;-85
2024/01/02 10:11:47;;;;;;;0.10;0.10;;;13.40;92.60;;;;;;4915045;29;20495;-83
2024/01/02 10:14:52;;;;;;;0.10;0.10;;;13.40;92.60;;;;;;4912100;29;20530;-82
2024/01/02 10:17:51;;;;;;;0.00;0.00;;;13.50;92.60;;;;;;4884824;29;20036;-82
2024/01/02 10:20:54;;;;;;;0.10;0.10;;;13.50;92.60;;;;;;4908816;29;20043;-83
2024/01/02 10:23:39;;;;;;;0.00;0.00;;;13.50;92.50;;;;;;4931596;29;20504;-82
2024/01/02 10:26:08;;;;;;;0.10;0.10;;;13.50;92.50;;;;;;4928994;29;20027;-82
2024/01/02 10:28:36;;;;;;;0.10;0.10;;;13.60;92.60;;;;;;4916280;29;20052;-80
2024/01/02 10:31:14;;;;;;;0.10;0.10;;;13.50;92.50;;;;;;4917121;29;20130;-81
2024/01/02 10:34:05;;;;;;;0.10;0.10;;;13.60;92.60;;;;;;4908594;29;20518;-81
2024/01/02 10:36:37;;;;;;;0.08;0.08;;;13.50;92.60;;;;;;4899925;29;20151;-82
2024/01/02 10:39:29;;;;;;;0.05;0.05;;;13.50;92.80;;;;;;4898684;29;20032;-84
2024/01/02 10:42:18;;;;;;;0.10;0.10;;;13.60;93.00;;;;;;4905523;29;20522;-80
2024/01/02 10:45:10;;;;;;;0.00;0.00;;;13.50;92.80;;;;;;4914773;29;20096;-82
2024/01/02 10:48:11;;;;;;;0.00;0.00;;;13.50;93.00;;;;;;4899899;29;20107;-82
2024/01/02 10:50:52;;;;;;;0.10;0.10;;;13.50;93.00;;;;;;4900858;29;20519;-81
2024/01/02 10:53:39;;;;;;;0.10;0.10;;;13.50;93.10;;;;;;4925229;29;20035;-81
2024/01/02 10:56:18;;;;;;;0.00;0.00;;;13.50;93.00;;;;;;4926912;29;20388;-81
2024/01/02 10:59:23;;;;;;;0.10;0.10;;;13.50;93.10;;;;;;4920577;29;20099;-80
2024/01/02 11:01:51;;;;;;;0.08;0.08;;;13.50;93.10;;;;;;4914396;29;20084;-81
2024/01/02 11:04:28;;;;;;;0.10;0.10;;;13.50;93.00;;;;;;4926504;29;20047;-79
2024/01/02 11:07:06;;;;;;;0.10;0.10;;;13.60;92.80;;;;;;4921806;29;20043;-80
2024/01/02 11:09:43;;;;;;;0.10;0.10;;;13.60;92.80;;;;;;4920404;29;20116;-79
2024/01/02 11:12:12;;;;;;;0.10;0.10;;;13.60;92.70;;;;;;4928419;29;20115;-79
2024/01/02 11:14:41;;;;;;;0.05;0.05;;;13.60;92.60;;;;;;4922060;29;20032;-81
2024/01/02 11:17:07;;;;;;;0.08;0.08;;;13.60;92.60;;;;;;4923663;29;20150;-80
2024/01/02 11:19:56;;;;;;;0.05;0.05;;;13.60;92.60;;;;;;4926865;29;20027;-80
2024/01/02 11:22:41;;;;;;;0.10;0.10;;;13.50;92.60;;;;;;4924871;29;20055;-79
2024/01/02 11:25:10;;;;;;;0.10;0.10;;;13.60;92.50;;;;;;4932003;29;20110;-80
2024/01/02 11:27:38;;;;;;;0.10;0.10;;;13.60;92.40;;;;;;4926758;29;20020;-79
2024/01/02 11:30:07;;;;;;;0.10;0.10;;;13.60;92.50;;;;;;4929620;29;20028;-79
2024/01/02 11:32:58;;;;;;;0.10;0.10;;;13.60;92.40;;;;;;4912061;29;20415;-79
2024/01/02 11:35:27;;;;;;;0.00;0.00;;;13.70;92.50;;;;;;4893130;29;20067;-79
2024/01/02 11:38:17;;;;;;;0.03;0.03;;;13.60;92.70;;;;;;4894694;29;20032;-80
2024/01/02 11:41:10;;;;;;;0.10;0.10;;;13.70;92.70;;;;;;4904160;29;20117;-80
2024/01/02 11:43:52;;;;;;;0.00;0.00;;;13.70;92.70;;;;;;4885635;29;20041;-80
2024/01/02 11:46:18;;;;;;;0.00;0.00;;;13.70;92.50;;;;;;4884014;29;20515;-80
2024/01/02 11:49:09;;;;;;;0.10;0.10;;;13.70;92.60;;;;;;4899293;29;20036;-77
2024/01/02 11:51:38;;;;;;;0.10;0.10;;;13.70;92.60;;;;;;4891395;29;20033;-78
2024/01/02 11:54:25;;;;;;;0.10;0.10;;;13.70;92.50;;;;;;4888891;29;20060;-77
2024/01/02 11:56:51;;;;;;;0.10;0.10;;;13.70;92.50;;;;;;4892840;29;20073;-77
2024/01/02 11:59:37;;;;;;;0.10;0.10;;;13.70;92.70;;;;;;4891471;29;20154;-77
2024/01/02 12:02:08;;;;;;;0.10;0.10;;;13.70;92.80;;;;;;4891532;29;20497;-77
2024/01/02 12:05:03;;;;;;;0.10;0.10;;;13.70;92.60;;;;;;4875018;29;20029;-77
2024/01/02 12:07:32;;;;;;;0.10;0.10;;;13.70;92.80;;;;;;4891414;29;20054;-78
2024/01/02 12:09:59;;;;;;;0.00;0.00;;;13.70;92.70;;;;;;4897842;29;20115;-77
2024/01/02 12:12:35;;;;;;;0.10;0.10;;;13.70;92.70;;;;;;4877384;29;20069;-77
2024/01/02 12:15:17;;;;;;;0.10;0.10;;;13.70;92.70;;;;;;4890758;29;20117;-78
2024/01/02 12:17:51;;;;;;;0.00;0.00;;;13.70;92.80;;;;;;4895330;29;20025;-78
2024/01/02 12:20:18;;;;;;;0.10;0.10;;;13.70;92.70;;;;;;4888401;29;20033;-80
2024/01/02 12:22:44;;;;;;;0.10;0.10;;;13.80;92.80;;;;;;4894309;29;20682;-77
2024/01/02 12:25:11;;;;;;;0.10;0.10;;;13.80;92.60;;;;;;4894378;29;20077;-79
2024/01/02 12:27:39;;;;;;;0.10;0.10;;;13.90;92.60;;;;;;4884849;29;20028;-78
2024/01/02 12:30:08;;;;;;;0.05;0.05;;;13.80;92.60;;;;;;4901276;29;20487;-79
2024/01/02 12:32:33;;;;;;;0.10;0.10;;;13.80;92.90;;;;;;4888418;29;20624;-79
2024/01/02 12:35:08;;;;;;;0.00;0.00;;;13.90;93.00;;;;;;4898443;29;20028;-79
2024/01/02 12:37:53;;;;;;;0.00;0.00;;;13.90;92.80;;;;;;4884360;29;20032;-79
2024/01/02 12:40:21;;;;;;;0.08;0.08;;;13.80;92.90;;;;;;4899702;29;20025;-80
2024/01/02 12:42:49;;;;;;;0.10;0.10;;;13.80;92.90;;;;;;4900399;29;20060;-78
2024/01/02 12:45:20;;;;;;;0.00;0.00;;;13.80;93.20;;;;;;4868472;29;20028;-78
2024/01/02 12:47:47;;;;;;;0.10;0.10;;;13.80;93.50;;;;;;4872486;29;20153;-78
2024/01/02 12:50:14;;;;;;;0.10;0.10;;;13.80;93.50;;;;;;4865296;29;20029;-78
2024/01/02 12:52:59;;;;;;;0.10;0.10;;;13.90;93.50;;;;;;4890723;29;20024;-82
2024/01/02 12:55:27;;;;;;;0.00;0.00;;;13.90;93.50;;;;;;4902007;29;20036;-81
2024/01/02 12:57:53;;;;;;;0.00;0.00;;;14.00;93.30;;;;;;4874351;29;20457;-83
2024/01/02 13:00:20;;;;;;;0.10;0.10;;;14.00;93.10;;;;;;4890250;29;20094;-80
2024/01/02 13:02:46;;;;;;;0.10;0.10;;;14.00;93.00;;;;;;4901748;29;20032;-80
2024/01/02 13:05:13;;;;;;;0.10;0.10;;;14.10;93.00;;;;;;4887727;29;20396;-80
2024/01/02 13:07:41;;;;;;;0.10;0.10;;;14.00;92.70;;;;;;4882478;29;20100;-80
2024/01/02 13:10:08;;;;;;;0.10;0.10;;;14.00;92.70;;;;;;4883146;29;20484;-83
2024/01/02 13:12:35;;;;;;;0.00;0.00;;;14.10;92.60;;;;;;4881449;29;20080;-79
2024/01/02 13:15:06;;;;;;;0.00;0.00;;;14.10;92.20;;;;;;4890782;29;20029;-80
2024/01/02 13:17:33;;;;;;;0.00;0.00;;;14.20;92.30;;;;;;4890885;29;20502;-80
2024/01/02 13:19:59;;;;;;;0.00;0.00;;;14.20;92.30;;;;;;4887061;29;20037;-79
2024/01/02 13:22:26;;;;;;;0.08;0.08;;;14.10;91.80;;;;;;4882150;29;20567;-80
2024/01/02 13:24:53;;;;;;;0.10;0.10;;;14.10;92.00;;;;;;4882763;29;20040;-80
2024/01/02 13:27:29;;;;;;;0.00;0.00;;;14.10;92.00;;;;;;4882810;29;20021;-82
2024/01/02 13:29:55;;;;;;;0.10;0.10;;;14.10;91.80;;;;;;4883951;29;21083;-82
2024/01/02 13:32:22;;;;;;;0.10;0.10;;;14.10;91.80;;;;;;4902870;29;20080;-81
2024/01/02 13:34:47;;;;;;;0.00;0.00;;;14.20;91.70;;;;;;4913663;29;20020;-80
2024/01/02 13:37:24;;;;;;;0.10;0.10;;;14.20;91.70;;;;;;4919401;29;20444;-81
2024/01/02 13:39:51;;;;;;;0.10;0.10;;;14.30;91.50;;;;;;4901043;29;20533;-81
2024/01/02 13:42:32;;;;;;;0.10;0.10;;;14.30;91.10;;;;;;4903860;29;20036;-81
2024/01/02 13:44:58;;;;;;;0.10;0.10;;;14.40;91.10;;;;;;4900373;29;20428;-81
2024/01/02 13:47:34;;;;;;;0.10;0.10;;;14.50;90.90;;;;;;4913251;29;20088;-82
2024/01/02 13:50:03;;;;;;;0.00;0.00;;;14.50;90.90;;;;;;4913859;29;20115;-81
2024/01/02 13:52:31;;;;;;;0.03;0.03;;;14.50;90.80;;;;;;4913764;29;20050;-81
2024/01/02 13:54:57;;;;;;;0.00;0.00;;;14.50;90.40;;;;;;4893478;29;20544;-82
2024/01/02 13:57:27;;;;;;;0.10;0.10;;;14.40;90.30;;;;;;4900409;29;20083;-81
2024/01/02 13:59:54;;;;;;;0.10;0.10;;;14.50;90.50;;;;;;4897610;29;20028;-81
2024/01/02 14:02:27;;;;;;;0.10;0.10;;;14.50;90.10;;;;;;4918842;29;20024;-82
2024/01/02 14:04:59;;;;;;;0.10;0.10;;;14.50;89.60;;;;;;4902085;29;20044;-82
2024/01/02 14:07:25;;;;;;;0.10;0.10;;;14.50;89.30;;;;;;4904877;29;20032;-84
2024/01/02 14:09:51;;;;;;;0.10;0.10;;;14.50;89.20;;;;;;4910125;29;20307;-83
2024/01/02 14:12:17;;;;;;;0.10;0.10;;;14.50;89.00;;;;;;4904682;29;20033;-84
2024/01/02 14:14:46;;;;;;;0.10;0.10;;;14.60;88.90;;;;;;4909378;29;20038;-81
2024/01/02 14:17:13;;;;;;;0.10;0.10;;;14.50;88.30;;;;;;4920606;29;20036;-81
2024/01/02 14:19:45;;;;;;;0.10;0.10;;;14.60;88.60;;;;;;4897408;29;20032;-81
2024/01/02 14:22:27;;;;;;;0.10;0.10;;;14.50;88.70;;;;;;4882994;29;20028;-80
2024/01/02 14:25:21;;;;;;;0.10;0.10;;;14.50;88.30;;;;;;4916805;29;20084;-80
2024/01/02 14:28:05;;;;;;;;;;;14.50;87.90;;;;;;4884941;29;20032;-80
2024/01/02 14:30:43;;;;;;;0.10;0.10;;;14.40;87.50;;;;;;4900404;29;19947;-79
2024/01/02 14:33:27;;;;;;;0.10;0.10;;;14.50;87.60;;;;;;4921222;29;20028;-80
2024/01/02 14:36:39;;;;;;;0.10;0.10;;;14.50;87.60;;;;;;4911679;29;20507;-80
2024/01/02 14:39:23;;;;;;;0.10;0.10;;;14.50;86.80;;;;;;4910244;29;20039;-80
2024/01/02 14:42:10;;;;;;;0.10;0.10;;;14.40;87.30;;;;;;4915527;29;20044;-79
2024/01/02 14:44:58;;;;;;;0.10;0.10;;;14.40;87.30;;;;;;4916429;29;20020;-79
2024/01/02 14:47:54;;;;;;;0.10;0.10;;;14.30;87.30;;;;;;4910102;29;20862;-79
2024/01/02 14:50:53;;;;;;;0.10;0.10;;;14.30;86.90;;;;;;4896346;29;20046;-80
2024/01/02 14:53:50;;;;;;;0.10;0.10;;;14.30;86.40;;;;;;4910117;29;20123;-79
2024/01/02 14:56:44;;;;;;;0.00;0.00;;;14.30;86.80;;;;;;4910262;29;20032;-78
2024/01/02 14:59:38;;;;;;;0.10;0.10;;;14.20;86.60;;;;;;4919089;29;20116;-79
2024/01/02 15:02:30;;;;;;;0.10;0.10;;;14.10;86.40;;;;;;4908806;29;20487;-78
2024/01/02 15:05:21;;;;;;;0.10;0.10;;;14.10;86.90;;;;;;4915459;29;20032;-80
2024/01/02 15:08:06;;;;;;;0.10;0.10;;;14.10;87.30;;;;;;4916275;29;20396;-78
2024/01/02 15:10:33;;;;;;;0.10;0.10;;;14.00;86.80;;;;;;4922010;29;20036;-78
2024/01/02 15:13:10;;;;;;;0.10;0.10;;;14.00;86.50;;;;;;4903557;29;20056;-78
2024/01/02 15:16:07;;;;;;;0.10;0.10;;;14.00;86.60;;;;;;4903325;29;20033;-78
2024/01/02 15:18:57;;;;;;;0.10;0.10;;;13.90;85.90;;;;;;4904612;29;20028;-78
2024/01/02 15:21:36;;;;;;;0.10;0.10;;;13.90;85.70;;;;;;4902698;29;20043;-78
2024/01/02 15:24:15;;;;;;;0.10;0.10;;;13.90;85.50;;;;;;4922176;29;20016;-77
2024/01/02 15:26:58;;;;;;;0.10;0.10;;;13.80;85.60;;;;;;4921606;29;20040;-78
2024/01/02 15:29:25;;;;;;;0.10;0.10;;;13.70;86.10;;;;;;4914379;29;20033;-78
2024/01/02 15:32:13;;;;;;;0.10;0.10;;;13.70;86.80;;;;;;4910051;29;20088;-78
2024/01/02 15:34:41;;;;;;;0.10;0.10;;;13.60;86.70;;;;;;4921419;29;20452;-78
2024/01/02 15:37:21;;;;;;;0.10;0.10;;;13.60;86.80;;;;;;4917080;29;20033;-80
2024/01/02 15:40:04;;;;;;;0.10;0.10;;;13.60;86.90;;;;;;4914059;29;20024;-79
2024/01/02 15:42:35;;;;;;;0.10;0.10;;;13.70;87.10;;;;;;4900082;29;20036;-82
2024/01/02 15:45:07;;;;;;;0.10;0.10;;;13.70;86.50;;;;;;4890441;29;20032;-80
2024/01/02 15:47:57;;;;;;;0.10;0.10;;;13.70;86.50;;;;;;4893436;29;20111;-79
2024/01/02 15:50:27;;;;;;;0.10;0.10;;;13.70;86.60;;;;;;4908860;29;20033;-83
2024/01/02 15:53:16;;;;;;;0.10;0.10;;;13.80;86.40;;;;;;4905569;29;20028;-83
2024/01/02 15:55:44;;;;;;;0.10;0.10;;;13.70;86.50;;;;;;4916875;29;20071;-86
2024/01/02 15:58:26;;;;;;;0.10;0.10;;;13.60;86.00;;;;;;4911009;29;20032;-81
2024/01/02 16:00:53;;;;;;;0.10;0.10;;;13.60;86.70;;;;;;4900205;29;20032;-82
2024/01/02 16:03:38;;;;;;;0.10;0.10;;;13.50;86.00;;;;;;4902567;29;20056;-87
2024/01/02 16:06:37;;;;;;;0.10;0.10;;;13.50;86.30;;;;;;4925998;29;20023;-82
2024/01/02 16:09:18;;;;;;;0.10;0.10;;;13.60;86.60;;;;;;4928586;29;20123;-82
2024/01/02 16:11:45;;;;;;;0.03;0.03;;;13.60;86.80;;;;;;4910485;29;20028;-82
2024/01/02 16:14:48;;;;;;;0.10;0.10;;;13.60;87.20;;;;;;4907467;29;20070;-82
2024/01/02 16:17:33;;;;;;;0.10;0.10;;;13.50;86.00;;;;;;4925737;29;20027;-80
2024/01/02 16:20:25;;;;;;;0.10;0.10;;;13.40;86.00;;;;;;4925819;29;20080;-81
2024/01/02 16:23:33;;;;;;;0.10;0.10;;;13.40;84.80;;;;;;4925898;29;20111;-80
2024/01/02 16:26:22;;;;;;;0.10;0.10;;;13.30;85.40;;;;;;4903690;29;20044;-79
2024/01/02 16:29:21;;;;;;;0.05;0.05;;;13.30;85.40;;;;;;4918150;29;20028;-81
2024/01/02 16:32:02;;;;;;;0.10;0.10;;;13.30;84.30;;;;;;4923685;29;20052;-78
2024/01/02 16:34:57;;;;;;;0.10;0.10;;;13.20;84.40;;;;;;4920946;29;20110;-78
2024/01/02 16:37:38;;;;;;;0.10;0.10;;;13.20;85.30;;;;;;4907032;29;20123;-80
2024/01/02 16:40:45;;;;;;;0.10;0.10;;;13.20;85.40;;;;;;4915281;29;20020;-80
2024/01/02 16:43:11;;;;;;;0.10;0.10;;;13.20;85.20;;;;;;4904356;29;20044;-81
2024/01/02 16:45:39;;;;;;;0.10;0.10;;;13.10;84.90;;;;;;4914949;29;20029;-82
2024/01/02 16:48:08;;;;;;;0.10;0.10;;;13.10;85.70;;;;;;4902780;29;20048;-81
2024/01/02 16:50:34;;;;;;;0.10;0.10;;;13.00;85.60;;;;;;4902396;29;20052;-80
2024/01/02 16:53:01;;;;;;;0.10;0.10;;;12.90;85.30;;;;;;4905460;29;20036;-77
2024/01/02 16:55:28;;;;;;;0.10;0.10;;;12.80;86.30;;;;;;4920625;29;20075;-86
2024/01/02 16:57:55;;;;;;;0.00;0.00;;;12.70;85.60;;;;;;4898509;29;20048;-88
2024/01/02 17:00:21;;;;;;;0.10;0.10;;;12.70;85.50;;;;;;4910719;29;20516;-88
2024/01/02 17:02:48;;;;;;;0.00;0.00;;;12.70;85.40;;;;;;4915106;29;20051;-88
2024/01/02 17:05:17;;;;;;;0.10;0.10;;;12.60;86.10;;;;;;4889375;29;20033;-88
2024/01/02 17:07:44;;;;;;;0.10;0.10;;;12.60;85.60;;;;;;4901235;29;20518;-88
2024/01/02 17:10:10;;;;;;;0.10;0.10;;;12.50;86.10;;;;;;4900558;29;20111;-87
2024/01/02 17:12:38;;;;;;;0.10;0.10;;;12.60;86.90;;;;;;4919640;29;20032;-89
2024/01/02 17:15:05;;;;;;;0.10;0.10;;;12.50;86.00;;;;;;4919716;29;20035;-87
2024/01/02 17:17:35;;;;;;;0.10;0.10;;;12.50;86.50;;;;;;4903286;29;20032;-88
2024/01/02 17:20:01;;;;;;;0.10;0.10;;;12.50;86.80;;;;;;4886351;29;20028;-86
2024/01/02 17:22:28;;;;;;;0.10;0.10;;;12.40;85.90;;;;;;4903881;29;20063;-84
2024/01/02 17:24:54;;;;;;;0.10;0.10;;;12.50;86.30;;;;;;4905018;29;20024;-85
2024/01/02 17:27:21;;;;;;;0.10;0.10;;;12.50;86.40;;;;;;4897690;29;20525;-86
2024/01/02 17:29:48;;;;;;;0.10;0.10;;;12.60;86.50;;;;;;4895915;29;20020;-87
2024/01/02 17:32:14;;;;;;;0.10;0.10;;;12.50;86.30;;;;;;4918791;29;20431;-87
2024/01/02 17:34:42;;;;;;;0.10;0.10;;;12.40;86.20;;;;;;4884561;29;20044;-86
2024/01/02 17:37:09;;;;;;;0.10;0.10;;;12.40;86.10;;;;;;4883891;29;20448;-87
2024/01/02 17:39:35;;;;;;;0.10;0.10;;;12.40;86.50;;;;;;4901495;29;20462;-87
2024/01/02 17:42:01;;;;;;;0.10;0.10;;;12.40;86.80;;;;;;4938598;29;20102;-87
2024/01/02 17:44:27;;;;;;;0.10;0.10;;;12.40;86.30;;;;;;4923992;29;20061;-88
2024/01/02 17:46:54;;;;;;;0.10;0.10;;;12.50;86.50;;;;;;4902872;29;20509;-87
2024/01/02 17:49:21;;;;;;;0.10;0.10;;;12.50;86.30;;;;;;4920261;29;20031;-86
2024/01/02 17:51:49;;;;;;;0.10;0.10;;;12.40;86.00;;;;;;4913560;29;20393;-88
2024/01/02 17:54:16;;;;;;;0.10;0.10;;;12.40;86.30;;;;;;4894590;29;20850;-87
2024/01/02 17:56:45;;;;;;;0.10;0.10;;;12.40;86.90;;;;;;4909576;29;20407;-81
2024/01/02 17:59:24;;;;;;;0.10;0.10;;;12.40;86.90;;;;;;4929947;29;20027;-87
2024/01/02 18:02:07;;;;;;;0.10;0.10;;;12.30;86.50;;;;;;4888139;29;20028;-87
2024/01/02 18:04:36;;;;;;;0.10;0.10;;;12.30;86.10;;;;;;4894540;29;20021;-86
2024/01/02 18:07:18;;;;;;;0.10;0.10;;;12.30;86.50;;;;;;4909412;29;20535;-85
2024/01/02 18:10:06;;;;;;;0.10;0.10;;;12.20;86.60;;;;;;4901839;29;20044;-80
2024/01/02 18:13:11;;;;;;;0.10;0.10;;;12.20;86.80;;;;;;4912232;29;20649;-82
2024/01/02 18:16:14;;;;;;;0.10;0.10;;;12.20;86.70;;;;;;4904538;29;20035;-82
2024/01/02 18:19:07;;;;;;;0.00;0.00;;;12.20;86.90;;;;;;4907155;29;20040;-81
2024/01/02 18:21:50;;;;;;;0.10;0.10;;;12.20;86.80;;;;;;4889782;29;20047;-82
2024/01/02 18:24:34;;;;;;;;;;;12.10;87.10;;;;;;4906376;29;20047;-81
2024/01/02 18:27:22;;;;;;;0.10;0.10;;;12.10;86.40;;;;;;4904722;29;19927;-81
2024/01/02 18:30:22;;;;;;;0.10;0.10;;;12.10;87.30;;;;;;4906345;29;20111;-83
2024/01/02 18:33:23;;;;;;;0.10;0.10;;;11.90;86.50;;;;;;4884948;29;20519;-80
2024/01/02 18:35:55;;;;;;;0.10;0.10;;;12.00;87.30;;;;;;4880237;29;20053;-86
2024/01/02 18:38:35;;;;;;;0.10;0.10;;;11.90;86.90;;;;;;4904993;29;20476;-83
2024/01/02 18:41:22;;;;;;;0.10;0.10;;;11.90;87.00;;;;;;4887427;29;20069;-81
2024/01/02 18:43:54;;;;;;;0.10;0.10;;;11.90;87.10;;;;;;4904858;29;20025;-79
2024/01/02 18:46:21;;;;;;;0.03;0.03;;;11.90;87.00;;;;;;4894409;29;20056;-82
2024/01/02 18:48:53;;;;;;;0.10;0.10;;;11.90;86.90;;;;;;4881495;29;20097;-79
2024/01/02 18:51:21;;;;;;;0.10;0.10;;;11.90;87.20;;;;;;4906669;29;20337;-78